createdAt,value
2023-03-29T00:00:14.765Z,44.20
2023-03-29T00:05:09.016Z,43.78
2023-03-29T00:10:02.490Z,43.41
2023-03-29T00:14:55.350Z,43.55
2023-03-29T00:19:48.982Z,43.62
2023-03-29T00:24:41.958Z,43.76
2023-03-29T00:29:35.444Z,43.64
2023-03-29T00:34:31.183Z,43.50
2023-03-29T00:39:25.930Z,43.52
2023-03-29T00:44:59.535Z,43.06
2023-03-29T00:49:54.114Z,43.56
2023-03-29T00:54:50.548Z,42.83
2023-03-29T01:00:05.176Z,42.84
2023-03-29T01:05:14.542Z,42.86
2023-03-29T01:10:34.918Z,42.76
2023-03-29T01:15:47.039Z,42.77
2023-03-29T01:21:18.484Z,42.61
2023-03-29T01:27:12.593Z,42.67
2023-03-29T01:32:22.416Z,42.60
2023-03-29T01:37:25.090Z,42.96
2023-03-29T01:42:32.639Z,42.68
2023-03-29T01:48:07.800Z,42.85
2023-03-29T01:53:08.610Z,42.89
2023-03-29T01:58:03.835Z,42.99
2023-03-29T02:03:05.111Z,42.84
2023-03-29T02:08:00.569Z,42.86
2023-03-29T02:12:53.793Z,42.91
2023-03-29T02:17:46.774Z,42.96
2023-03-29T02:23:02.686Z,42.86
2023-03-29T02:27:55.587Z,42.91
2023-03-29T02:33:11.647Z,43.03
2023-03-29T02:38:09.382Z,42.69
2023-03-29T02:43:03.838Z,42.46
2023-03-29T02:48:01.548Z,42.57
2023-03-29T02:53:01.106Z,42.63
2023-03-29T02:57:54.097Z,43.07
2023-03-29T03:02:48.323Z,42.87
2023-03-29T03:07:41.685Z,43.15
2023-03-29T03:12:35.060Z,43.36
2023-03-29T03:17:28.158Z,43.21
2023-03-29T03:22:21.156Z,42.91
2023-03-29T03:27:15.208Z,43.41
2023-03-29T03:32:08.146Z,43.16
2023-03-29T03:37:20.513Z,43.34
2023-03-29T03:42:14.173Z,43.32
2023-03-29T03:47:11.283Z,43.10
2023-03-29T03:52:05.753Z,43.12
2023-03-29T03:56:59.454Z,43.06
2023-03-29T04:02:00.751Z,43.13
2023-03-29T04:06:52.998Z,43.17
2023-03-29T04:12:02.055Z,43.26
2023-03-29T04:16:55.970Z,42.78
2023-03-29T04:22:08.298Z,42.66
2023-03-29T04:27:03.060Z,42.96
2023-03-29T04:31:57.448Z,42.61
2023-03-29T04:37:11.067Z,42.72
2023-03-29T04:42:05.457Z,42.82
2023-03-29T04:46:59.860Z,42.66
2023-03-29T04:52:01.269Z,42.66
2023-03-29T04:56:57.202Z,42.48
2023-03-29T05:02:11.518Z,42.52
2023-03-29T05:07:08.565Z,42.95
2023-03-29T05:12:01.939Z,43.04
2023-03-29T05:17:01.604Z,42.14
2023-03-29T05:21:54.532Z,37.52
2023-03-29T05:26:52.230Z,39.09
2023-03-29T05:31:47.494Z,30.51
2023-03-29T05:36:43.396Z,29.97
2023-03-29T05:41:35.740Z,30.16
2023-03-29T05:46:49.032Z,29.30
2023-03-29T05:51:46.214Z,33.46
2023-03-29T05:56:40.146Z,36.26
2023-03-29T06:01:33.178Z,36.27
2023-03-29T06:06:30.409Z,36.61
2023-03-29T06:11:26.773Z,36.68
2023-03-29T06:16:39.634Z,37.31
2023-03-29T06:21:33.960Z,38.06
2023-03-29T06:26:31.147Z,38.44
2023-03-29T06:31:24.762Z,38.09
2023-03-29T06:36:20.701Z,38.51
2023-03-29T06:41:12.882Z,38.33
2023-03-29T06:46:26.359Z,38.11
2023-03-29T06:51:23.438Z,38.29
2023-03-29T06:56:18.084Z,38.67
2023-03-29T07:01:14.578Z,38.82
2023-03-29T07:06:21.102Z,39.01
2023-03-29T07:11:16.300Z,39.29
2023-03-29T07:16:33.008Z,39.31
2023-03-29T07:21:42.153Z,39.24
2023-03-29T07:26:36.356Z,39.04
2023-03-29T07:31:29.727Z,39.24
2023-03-29T07:36:44.037Z,38.91
2023-03-29T07:41:36.917Z,38.68
2023-03-29T07:46:37.637Z,39.08
2023-03-29T07:51:30.742Z,39.22
2023-03-29T07:56:30.267Z,39.33
2023-03-29T08:01:43.419Z,39.29
2023-03-29T08:06:50.682Z,39.34
2023-03-29T08:11:46.986Z,39.27
2023-03-29T08:16:46.772Z,39.00
2023-03-29T08:21:41.846Z,39.20
2023-03-29T08:26:35.297Z,39.00
2023-03-29T08:31:28.309Z,38.93
2023-03-29T08:36:22.016Z,38.93
2023-03-29T08:42:06.927Z,38.41
2023-03-29T08:47:13.293Z,38.95
2023-03-29T08:52:36.778Z,38.02
2023-03-29T08:57:53.202Z,38.94
2023-03-29T09:02:58.167Z,38.87
2023-03-29T09:07:53.010Z,38.81
2023-03-29T09:13:01.774Z,39.28
2023-03-29T09:18:03.969Z,39.41
2023-03-29T09:23:03.566Z,39.01
2023-03-29T09:28:19.817Z,39.35
2023-03-29T09:33:31.244Z,39.64
2023-03-29T09:38:40.950Z,39.35
2023-03-29T09:43:38.863Z,39.58
2023-03-29T09:48:38.859Z,39.63
2023-03-29T09:53:32.572Z,39.30
2023-03-29T09:58:48.647Z,38.89
2023-03-29T10:03:50.832Z,38.74
2023-03-29T10:08:59.180Z,38.44
2023-03-29T10:14:06.926Z,38.69
2023-03-29T10:18:59.885Z,38.92
2023-03-29T10:23:59.842Z,38.95
2023-03-29T10:28:55.400Z,38.34
2023-03-29T10:33:57.957Z,38.66
2023-03-29T10:38:53.768Z,38.79
2023-03-29T10:43:50.924Z,38.65
2023-03-29T10:48:49.533Z,38.98
2023-03-29T10:53:43.298Z,38.51
2023-03-29T10:58:58.420Z,37.99
2023-03-29T11:04:16.052Z,38.31
2023-03-29T11:09:31.183Z,38.44
2023-03-29T11:14:33.709Z,38.04
2023-03-29T11:19:41.554Z,38.54
2023-03-29T11:25:04.054Z,38.32
2023-03-29T11:30:06.712Z,38.80
2023-03-29T11:35:17.946Z,39.49
2023-03-29T11:40:29.776Z,41.54
2023-03-29T11:45:42.908Z,41.27
2023-03-29T11:50:51.017Z,41.07
2023-03-29T11:55:44.936Z,41.13
2023-03-29T12:00:48.655Z,40.58
2023-03-29T12:05:48.562Z,40.30
2023-03-29T12:10:46.195Z,40.50
2023-03-29T12:15:44.302Z,40.62
2023-03-29T12:20:40.825Z,40.04
2023-03-29T12:25:58.681Z,40.08
2023-03-29T12:31:18.407Z,39.84
2023-03-29T12:36:18.762Z,39.91
2023-03-29T12:41:53.624Z,39.77
2023-03-29T12:47:05.284Z,39.74
2023-03-29T12:52:00.970Z,39.69
2023-03-29T12:56:53.446Z,39.28
2023-03-29T13:02:15.543Z,39.09
2023-03-29T13:07:16.108Z,39.46
2023-03-29T13:12:11.880Z,39.62
2023-03-29T13:17:18.283Z,39.19
2023-03-29T13:23:13.216Z,39.67
2023-03-29T13:28:18.549Z,39.42
2023-03-29T13:33:53.006Z,39.90
2023-03-29T13:38:49.504Z,39.31
2023-03-29T13:43:44.878Z,39.51
2023-03-29T13:48:37.655Z,39.65
2023-03-29T13:53:38.106Z,39.72
2023-03-29T13:58:43.250Z,39.75
2023-03-29T14:03:44.783Z,39.60
2023-03-29T14:08:42.550Z,39.63
2023-03-29T14:13:36.091Z,39.66
2023-03-29T14:18:38.208Z,39.26
2023-03-29T14:23:34.336Z,39.76
2023-03-29T14:28:29.410Z,40.10
2023-03-29T14:33:29.254Z,40.03
2023-03-29T14:38:24.499Z,40.28
2023-03-29T14:43:22.510Z,39.80
2023-03-29T14:48:16.221Z,40.04
2023-03-29T14:53:15.444Z,39.86
2023-03-29T14:58:21.138Z,39.70
2023-03-29T15:03:16.461Z,40.46
2023-03-29T15:08:15.204Z,40.00
2023-03-29T15:13:08.944Z,39.99
2023-03-29T15:18:03.865Z,40.31
2023-03-29T15:23:02.773Z,40.04
2023-03-29T15:28:01.029Z,39.83
2023-03-29T15:32:54.880Z,40.42
2023-03-29T15:37:50.149Z,40.06
2023-03-29T15:42:43.693Z,39.98
2023-03-29T15:47:36.807Z,40.06
2023-03-29T15:52:30.514Z,38.88
2023-03-29T15:57:23.911Z,39.60
2023-03-29T16:02:18.156Z,39.77
2023-03-29T16:07:14.941Z,39.10
2023-03-29T16:12:07.608Z,39.81
2023-03-29T16:17:01.708Z,39.56
2023-03-29T16:21:54.747Z,39.03
2023-03-29T16:26:48.645Z,39.09
2023-03-29T16:31:43.066Z,39.51
2023-03-29T16:36:35.412Z,39.83
2023-03-29T16:41:28.786Z,39.92
2023-03-29T16:46:21.887Z,39.94
2023-03-29T16:51:16.388Z,39.19
2023-03-29T16:56:11.038Z,39.26
2023-03-29T17:01:16.445Z,39.18
2023-03-29T17:06:12.010Z,39.63
2023-03-29T17:11:07.071Z,40.01
2023-03-29T17:16:01.097Z,40.46
2023-03-29T17:20:57.613Z,40.37
2023-03-29T17:25:50.807Z,40.42
2023-03-29T17:30:46.523Z,41.93
2023-03-29T17:35:42.223Z,42.46
2023-03-29T17:40:34.772Z,43.06
2023-03-29T17:45:28.140Z,43.52
2023-03-29T17:50:22.018Z,43.77
2023-03-29T17:55:14.704Z,43.43
2023-03-29T18:00:11.604Z,43.79
2023-03-29T18:05:04.714Z,44.01
2023-03-29T18:09:56.820Z,43.96
2023-03-29T18:14:49.441Z,43.93
2023-03-29T18:19:43.106Z,43.79
2023-03-29T18:24:37.200Z,43.60
2023-03-29T18:29:31.257Z,43.51
2023-03-29T18:34:24.412Z,43.54
2023-03-29T18:39:18.202Z,43.74
2023-03-29T18:44:11.158Z,43.91
2023-03-29T18:49:05.187Z,43.85
2023-03-29T18:53:58.402Z,43.91
2023-03-29T18:58:51.945Z,43.94
2023-03-29T19:03:45.747Z,43.67
2023-03-29T19:08:41.011Z,43.47
2023-03-29T19:13:34.463Z,43.17
2023-03-29T19:18:27.504Z,43.42
2023-03-29T19:23:21.781Z,43.29
2023-03-29T19:28:15.218Z,43.33
2023-03-29T19:33:09.298Z,43.76
2023-03-29T19:38:03.039Z,43.28
2023-03-29T19:43:00.373Z,42.12
2023-03-29T19:48:03.334Z,41.75
2023-03-29T19:52:57.604Z,41.14
2023-03-29T19:57:50.883Z,41.02
2023-03-29T20:02:44.454Z,39.41
2023-03-29T20:07:37.616Z,39.27
2023-03-29T20:12:31.928Z,39.11
2023-03-29T20:17:24.539Z,39.48
2023-03-29T20:22:19.972Z,39.08
2023-03-29T20:27:12.726Z,38.54
2023-03-29T20:32:05.335Z,38.91
2023-03-29T20:37:01.555Z,38.61
2023-03-29T20:41:54.277Z,38.74
2023-03-29T20:46:54.801Z,38.36
2023-03-29T20:51:48.112Z,38.96
2023-03-29T20:56:42.836Z,39.15
2023-03-29T21:01:35.654Z,40.28
2023-03-29T21:06:28.689Z,40.03
2023-03-29T21:11:22.152Z,40.72
2023-03-29T21:16:16.331Z,40.47
2023-03-29T21:21:10.860Z,40.84
2023-03-29T21:26:07.836Z,40.81
2023-03-29T21:31:05.214Z,41.12
2023-03-29T21:35:58.501Z,41.00
2023-03-29T21:40:51.757Z,41.12
2023-03-29T21:45:48.854Z,41.00
2023-03-29T21:50:43.107Z,41.05
2023-03-29T21:55:39.071Z,41.15
2023-03-29T22:00:34.188Z,41.21
2023-03-29T22:05:28.098Z,41.34
2023-03-29T22:10:23.658Z,41.76
2023-03-29T22:15:17.879Z,41.65
2023-03-29T22:20:13.617Z,41.51
2023-03-29T22:25:10.766Z,41.95
2023-03-29T22:30:06.860Z,41.82
2023-03-29T22:34:59.267Z,41.89
2023-03-29T22:39:52.051Z,41.90
2023-03-29T22:44:51.626Z,41.94
2023-03-29T22:49:45.091Z,41.94
2023-03-29T22:54:38.802Z,41.86
2023-03-29T22:59:32.386Z,42.25
2023-03-29T23:04:25.989Z,42.06
2023-03-29T23:09:18.947Z,42.34
2023-03-29T23:14:11.800Z,42.43
2023-03-29T23:19:05.798Z,42.57
2023-03-29T23:23:59.203Z,42.71
2023-03-29T23:28:55.166Z,42.71
2023-03-29T23:33:47.837Z,42.50
2023-03-29T23:38:41.246Z,42.57
2023-03-29T23:43:36.198Z,42.94
2023-03-29T23:48:30.276Z,42.63
2023-03-29T23:53:24.063Z,43.00
2023-03-29T23:58:16.783Z,42.69
